Terminal Aerodrome Forecast
Issued by NWS

Home | Current Version | Previous Version | Text Only | Print | Product List | Glossary Off
Versions: 1 2 3 4 5 6 7 8 9 10 11 12 13 14

000
FTUS43 KMPX 261139
TAFAXN
TAF
KAXN 261139Z 2612/2712 02006KT P6SM OVC015
     FM261400 03009KT P6SM SCT020 BKN035
     FM261600 36006KT P6SM SCT050 SCT250
     FM270000 28004KT P6SM SCT250=

USA.gov is the U.S. government's official web portal to all federal, state and local government web resources and services.